sensor_id;sensor_type;location;lat;lon;timestamp;P1;durP1;ratioP1;P2;durP2;ratioP2
76693;SDS011;69667;52.136;5.424;2023-08-20T00:00:04;5.95;;;1.80;;
76693;SDS011;69667;52.136;5.424;2023-08-20T00:02:37;5.22;;;2.10;;
76693;SDS011;69667;52.136;5.424;2023-08-20T00:05:09;3.38;;;2.13;;
76693;SDS011;69667;52.136;5.424;2023-08-20T00:10:06;4.45;;;2.25;;
76693;SDS011;69667;52.136;5.424;2023-08-20T00:12:35;3.88;;;1.98;;
76693;SDS011;69667;52.136;5.424;2023-08-20T00:15:03;2.67;;;1.50;;
76693;SDS011;69667;52.136;5.424;2023-08-20T00:17:35;3.58;;;1.88;;
76693;SDS011;69667;52.136;5.424;2023-08-20T00:20:06;3.90;;;2.10;;
76693;SDS011;69667;52.136;5.424;2023-08-20T00:22:42;7.45;;;2.30;;
76693;SDS011;69667;52.136;5.424;2023-08-20T00:25:12;5.25;;;1.90;;
76693;SDS011;69667;52.136;5.424;2023-08-20T00:27:42;2.80;;;1.67;;
76693;SDS011;69667;52.136;5.424;2023-08-20T00:30:11;3.58;;;1.67;;
76693;SDS011;69667;52.136;5.424;2023-08-20T00:32:39;3.50;;;1.90;;
76693;SDS011;69667;52.136;5.424;2023-08-20T00:35:08;4.78;;;2.28;;
76693;SDS011;69667;52.136;5.424;2023-08-20T00:40:04;5.60;;;2.13;;
76693;SDS011;69667;52.136;5.424;2023-08-20T00:42:34;3.85;;;1.73;;
76693;SDS011;69667;52.136;5.424;2023-08-20T00:45:03;6.25;;;2.00;;
76693;SDS011;69667;52.136;5.424;2023-08-20T00:47:32;2.78;;;1.60;;
76693;SDS011;69667;52.136;5.424;2023-08-20T00:50:02;4.22;;;2.00;;
76693;SDS011;69667;52.136;5.424;2023-08-20T00:52:34;4.22;;;2.08;;
76693;SDS011;69667;52.136;5.424;2023-08-20T00:55:07;4.35;;;1.23;;
76693;SDS011;69667;52.136;5.424;2023-08-20T01:00:06;4.57;;;1.77;;
76693;SDS011;69667;52.136;5.424;2023-08-20T01:02:37;3.60;;;1.88;;
76693;SDS011;69667;52.136;5.424;2023-08-20T01:05:07;4.63;;;2.08;;
76693;SDS011;69667;52.136;5.424;2023-08-20T01:10:53;5.70;;;1.90;;
76693;SDS011;69667;52.136;5.424;2023-08-20T01:13:26;8.10;;;2.03;;
76693;SDS011;69667;52.136;5.424;2023-08-20T01:15:54;4.78;;;2.05;;
76693;SDS011;69667;52.136;5.424;2023-08-20T01:18:23;5.00;;;1.80;;
76693;SDS011;69667;52.136;5.424;2023-08-20T01:20:58;5.35;;;1.70;;
76693;SDS011;69667;52.136;5.424;2023-08-20T01:26:51;2.60;;;1.38;;
76693;SDS011;69667;52.136;5.424;2023-08-20T01:29:31;6.07;;;2.03;;
76693;SDS011;69667;52.136;5.424;2023-08-20T01:32:00;3.58;;;2.13;;
76693;SDS011;69667;52.136;5.424;2023-08-20T01:34:29;4.70;;;2.05;;
76693;SDS011;69667;52.136;5.424;2023-08-20T01:36:58;3.33;;;1.70;;
76693;SDS011;69667;52.136;5.424;2023-08-20T01:39:26;3.15;;;1.85;;
76693;SDS011;69667;52.136;5.424;2023-08-20T01:41:54;4.63;;;2.13;;
76693;SDS011;69667;52.136;5.424;2023-08-20T01:44:26;4.45;;;1.98;;
76693;SDS011;69667;52.136;5.424;2023-08-20T01:46:54;4.93;;;1.70;;
76693;SDS011;69667;52.136;5.424;2023-08-20T01:49:22;4.85;;;2.00;;
76693;SDS011;69667;52.136;5.424;2023-08-20T01:51:50;5.43;;;1.65;;
76693;SDS011;69667;52.136;5.424;2023-08-20T01:54:18;3.75;;;1.92;;
76693;SDS011;69667;52.136;5.424;2023-08-20T01:59:15;4.07;;;1.75;;
76693;SDS011;69667;52.136;5.424;2023-08-20T02:01:43;3.95;;;1.42;;
76693;SDS011;69667;52.136;5.424;2023-08-20T02:04:12;2.42;;;1.58;;
76693;SDS011;69667;52.136;5.424;2023-08-20T02:06:40;4.45;;;1.33;;
76693;SDS011;69667;52.136;5.424;2023-08-20T02:09:08;3.22;;;1.70;;
76693;SDS011;69667;52.136;5.424;2023-08-20T02:11:36;4.13;;;1.67;;
76693;SDS011;69667;52.136;5.424;2023-08-20T02:14:05;4.45;;;1.40;;
76693;SDS011;69667;52.136;5.424;2023-08-20T02:16:33;3.10;;;1.67;;
76693;SDS011;69667;52.136;5.424;2023-08-20T02:19:02;4.78;;;2.00;;
76693;SDS011;69667;52.136;5.424;2023-08-20T02:21:32;5.53;;;1.80;;
76693;SDS011;69667;52.136;5.424;2023-08-20T02:24:01;4.65;;;1.90;;
76693;SDS011;69667;52.136;5.424;2023-08-20T02:26:29;3.63;;;1.38;;
76693;SDS011;69667;52.136;5.424;2023-08-20T02:28:57;3.38;;;1.58;;
76693;SDS011;69667;52.136;5.424;2023-08-20T02:31:25;3.63;;;1.65;;
76693;SDS011;69667;52.136;5.424;2023-08-20T02:33:57;2.30;;;1.48;;
76693;SDS011;69667;52.136;5.424;2023-08-20T02:36:25;5.25;;;1.70;;
76693;SDS011;69667;52.136;5.424;2023-08-20T02:38:53;4.82;;;1.80;;
76693;SDS011;69667;52.136;5.424;2023-08-20T02:41:21;3.28;;;1.48;;
76693;SDS011;69667;52.136;5.424;2023-08-20T02:43:50;6.55;;;1.77;;
76693;SDS011;69667;52.136;5.424;2023-08-20T02:46:19;6.25;;;1.80;;
76693;SDS011;69667;52.136;5.424;2023-08-20T02:48:48;3.33;;;1.30;;
76693;SDS011;69667;52.136;5.424;2023-08-20T02:51:16;2.95;;;1.60;;
76693;SDS011;69667;52.136;5.424;2023-08-20T02:53:44;3.42;;;1.73;;
76693;SDS011;69667;52.136;5.424;2023-08-20T02:56:12;5.97;;;1.88;;
76693;SDS011;69667;52.136;5.424;2023-08-20T02:58:40;3.33;;;1.40;;
76693;SDS011;69667;52.136;5.424;2023-08-20T03:01:17;4.25;;;1.80;;
76693;SDS011;69667;52.136;5.424;2023-08-20T03:03:46;7.20;;;2.05;;
76693;SDS011;69667;52.136;5.424;2023-08-20T03:06:14;3.95;;;1.95;;
76693;SDS011;69667;52.136;5.424;2023-08-20T03:08:43;2.20;;;1.65;;
76693;SDS011;69667;52.136;5.424;2023-08-20T03:11:11;5.07;;;1.88;;
76693;SDS011;69667;52.136;5.424;2023-08-20T03:13:40;5.20;;;1.83;;
76693;SDS011;69667;52.136;5.424;2023-08-20T03:16:08;4.57;;;1.60;;
76693;SDS011;69667;52.136;5.424;2023-08-20T03:18:36;5.65;;;2.08;;
76693;SDS011;69667;52.136;5.424;2023-08-20T03:21:05;3.25;;;1.90;;
76693;SDS011;69667;52.136;5.424;2023-08-20T03:23:33;3.78;;;1.83;;
76693;SDS011;69667;52.136;5.424;2023-08-20T03:26:01;4.80;;;1.95;;
76693;SDS011;69667;52.136;5.424;2023-08-20T03:28:29;3.20;;;1.85;;
76693;SDS011;69667;52.136;5.424;2023-08-20T03:31:01;3.97;;;2.25;;
76693;SDS011;69667;52.136;5.424;2023-08-20T03:33:34;5.05;;;2.05;;
76693;SDS011;69667;52.136;5.424;2023-08-20T03:36:02;6.57;;;2.30;;
76693;SDS011;69667;52.136;5.424;2023-08-20T03:38:31;3.95;;;1.70;;
76693;SDS011;69667;52.136;5.424;2023-08-20T03:40:59;4.35;;;1.85;;
76693;SDS011;69667;52.136;5.424;2023-08-20T03:43:27;4.47;;;2.45;;
76693;SDS011;69667;52.136;5.424;2023-08-20T03:45:56;3.22;;;1.90;;
76693;SDS011;69667;52.136;5.424;2023-08-20T03:48:24;3.10;;;1.73;;
76693;SDS011;69667;52.136;5.424;2023-08-20T03:50:52;6.32;;;2.13;;
76693;SDS011;69667;52.136;5.424;2023-08-20T03:53:20;7.38;;;2.25;;
76693;SDS011;69667;52.136;5.424;2023-08-20T03:55:49;3.90;;;1.90;;
76693;SDS011;69667;52.136;5.424;2023-08-20T03:58:17;3.72;;;2.08;;
76693;SDS011;69667;52.136;5.424;2023-08-20T04:00:45;8.70;;;1.73;;
76693;SDS011;69667;52.136;5.424;2023-08-20T04:03:16;3.13;;;1.60;;
76693;SDS011;69667;52.136;5.424;2023-08-20T04:05:46;5.38;;;1.63;;
76693;SDS011;69667;52.136;5.424;2023-08-20T04:08:14;3.13;;;1.83;;
76693;SDS011;69667;52.136;5.424;2023-08-20T04:10:43;4.68;;;1.77;;
76693;SDS011;69667;52.136;5.424;2023-08-20T04:13:14;3.08;;;1.77;;
76693;SDS011;69667;52.136;5.424;2023-08-20T04:15:43;4.60;;;1.50;;
76693;SDS011;69667;52.136;5.424;2023-08-20T04:18:11;6.38;;;2.10;;
76693;SDS011;69667;52.136;5.424;2023-08-20T04:20:40;4.50;;;1.67;;
76693;SDS011;69667;52.136;5.424;2023-08-20T04:23:08;6.03;;;1.63;;
76693;SDS011;69667;52.136;5.424;2023-08-20T04:25:36;2.33;;;1.13;;
76693;SDS011;69667;52.136;5.424;2023-08-20T04:28:04;3.10;;;1.58;;
76693;SDS011;69667;52.136;5.424;2023-08-20T04:30:34;9.02;;;1.77;;
76693;SDS011;69667;52.136;5.424;2023-08-20T04:33:05;3.33;;;1.50;;
76693;SDS011;69667;52.136;5.424;2023-08-20T04:35:33;3.83;;;1.75;;
76693;SDS011;69667;52.136;5.424;2023-08-20T04:38:02;5.28;;;1.70;;
76693;SDS011;69667;52.136;5.424;2023-08-20T04:40:31;2.78;;;1.45;;
76693;SDS011;69667;52.136;5.424;2023-08-20T04:42:59;3.60;;;1.55;;
76693;SDS011;69667;52.136;5.424;2023-08-20T04:45:28;3.28;;;1.38;;
76693;SDS011;69667;52.136;5.424;2023-08-20T04:47:56;2.42;;;1.58;;
76693;SDS011;69667;52.136;5.424;2023-08-20T04:50:25;4.28;;;1.63;;
76693;SDS011;69667;52.136;5.424;2023-08-20T04:52:53;3.10;;;1.23;;
76693;SDS011;69667;52.136;5.424;2023-08-20T04:55:22;3.22;;;1.50;;
76693;SDS011;69667;52.136;5.424;2023-08-20T04:57:50;2.95;;;1.30;;
76693;SDS011;69667;52.136;5.424;2023-08-20T05:00:18;2.40;;;1.23;;
76693;SDS011;69667;52.136;5.424;2023-08-20T05:02:55;2.38;;;1.38;;
76693;SDS011;69667;52.136;5.424;2023-08-20T05:05:23;2.10;;;1.20;;
76693;SDS011;69667;52.136;5.424;2023-08-20T05:07:51;4.35;;;2.00;;
76693;SDS011;69667;52.136;5.424;2023-08-20T05:10:20;4.32;;;1.52;;
76693;SDS011;69667;52.136;5.424;2023-08-20T05:12:48;2.47;;;1.27;;
76693;SDS011;69667;52.136;5.424;2023-08-20T05:15:16;4.47;;;2.10;;
76693;SDS011;69667;52.136;5.424;2023-08-20T05:17:44;2.47;;;1.30;;
76693;SDS011;69667;52.136;5.424;2023-08-20T05:20:13;2.67;;;1.35;;
76693;SDS011;69667;52.136;5.424;2023-08-20T05:22:43;4.68;;;1.73;;
76693;SDS011;69667;52.136;5.424;2023-08-20T05:25:11;4.43;;;1.48;;
76693;SDS011;69667;52.136;5.424;2023-08-20T05:27:41;4.90;;;1.95;;
76693;SDS011;69667;52.136;5.424;2023-08-20T05:30:09;2.80;;;1.70;;
76693;SDS011;69667;52.136;5.424;2023-08-20T05:32:38;2.75;;;1.50;;
76693;SDS011;69667;52.136;5.424;2023-08-20T05:35:07;3.88;;;1.60;;
76693;SDS011;69667;52.136;5.424;2023-08-20T05:37:36;2.88;;;1.42;;
76693;SDS011;69667;52.136;5.424;2023-08-20T05:40:05;2.95;;;1.42;;
76693;SDS011;69667;52.136;5.424;2023-08-20T05:42:36;1.88;;;1.20;;
76693;SDS011;69667;52.136;5.424;2023-08-20T05:45:06;3.45;;;1.40;;
76693;SDS011;69667;52.136;5.424;2023-08-20T05:50:05;3.22;;;1.90;;
76693;SDS011;69667;52.136;5.424;2023-08-20T05:52:34;3.90;;;1.83;;
76693;SDS011;69667;52.136;5.424;2023-08-20T05:55:03;5.28;;;2.10;;
76693;SDS011;69667;52.136;5.424;2023-08-20T05:57:33;4.32;;;2.10;;
76693;SDS011;69667;52.136;5.424;2023-08-20T06:00:04;6.55;;;2.45;;
76693;SDS011;69667;52.136;5.424;2023-08-20T06:02:38;6.13;;;2.45;;
76693;SDS011;69667;52.136;5.424;2023-08-20T06:05:08;4.40;;;1.73;;
76693;SDS011;69667;52.136;5.424;2023-08-20T06:07:37;4.70;;;1.73;;
76693;SDS011;69667;52.136;5.424;2023-08-20T06:10:05;6.05;;;2.28;;
76693;SDS011;69667;52.136;5.424;2023-08-20T06:12:34;5.55;;;2.33;;
76693;SDS011;69667;52.136;5.424;2023-08-20T06:15:03;5.95;;;2.08;;
76693;SDS011;69667;52.136;5.424;2023-08-20T06:17:32;3.03;;;1.77;;
76693;SDS011;69667;52.136;5.424;2023-08-20T06:20:01;4.82;;;1.73;;
76693;SDS011;69667;52.136;5.424;2023-08-20T06:22:32;7.70;;;2.08;;
76693;SDS011;69667;52.136;5.424;2023-08-20T06:25:00;5.95;;;2.03;;
76693;SDS011;69667;52.136;5.424;2023-08-20T06:27:29;4.07;;;2.13;;
76693;SDS011;69667;52.136;5.424;2023-08-20T06:29:58;3.08;;;1.63;;
76693;SDS011;69667;52.136;5.424;2023-08-20T06:32:27;4.18;;;1.30;;
76693;SDS011;69667;52.136;5.424;2023-08-20T06:34:55;4.18;;;1.30;;
76693;SDS011;69667;52.136;5.424;2023-08-20T06:37:23;3.75;;;1.60;;
76693;SDS011;69667;52.136;5.424;2023-08-20T06:39:52;5.43;;;1.30;;
76693;SDS011;69667;52.136;5.424;2023-08-20T06:44:48;4.97;;;1.58;;
76693;SDS011;69667;52.136;5.424;2023-08-20T06:49:45;3.53;;;1.33;;
76693;SDS011;69667;52.136;5.424;2023-08-20T06:52:13;2.67;;;1.00;;
76693;SDS011;69667;52.136;5.424;2023-08-20T06:54:41;2.40;;;1.17;;
76693;SDS011;69667;52.136;5.424;2023-08-20T06:57:10;3.05;;;0.90;;
76693;SDS011;69667;52.136;5.424;2023-08-20T06:59:38;1.95;;;0.98;;
76693;SDS011;69667;52.136;5.424;2023-08-20T07:02:06;3.80;;;0.90;;
76693;SDS011;69667;52.136;5.424;2023-08-20T07:04:34;3.15;;;0.90;;
76693;SDS011;69667;52.136;5.424;2023-08-20T07:07:03;3.47;;;1.10;;
76693;SDS011;69667;52.136;5.424;2023-08-20T07:09:35;3.05;;;1.13;;
76693;SDS011;69667;52.136;5.424;2023-08-20T07:12:05;2.60;;;0.98;;
76693;SDS011;69667;52.136;5.424;2023-08-20T07:14:33;2.42;;;0.88;;
76693;SDS011;69667;52.136;5.424;2023-08-20T07:17:02;1.50;;;0.80;;
76693;SDS011;69667;52.136;5.424;2023-08-20T07:19:30;3.05;;;0.77;;
76693;SDS011;69667;52.136;5.424;2023-08-20T07:21:58;3.20;;;0.77;;
76693;SDS011;69667;52.136;5.424;2023-08-20T07:24:27;3.63;;;0.93;;
76693;SDS011;69667;52.136;5.424;2023-08-20T07:26:57;3.47;;;1.02;;
76693;SDS011;69667;52.136;5.424;2023-08-20T07:29:29;3.97;;;1.08;;
76693;SDS011;69667;52.136;5.424;2023-08-20T07:31:57;2.70;;;0.88;;
76693;SDS011;69667;52.136;5.424;2023-08-20T07:34:30;2.38;;;0.63;;
76693;SDS011;69667;52.136;5.424;2023-08-20T07:37:00;2.53;;;0.77;;
76693;SDS011;69667;52.136;5.424;2023-08-20T07:39:29;1.92;;;0.77;;
76693;SDS011;69667;52.136;5.424;2023-08-20T07:41:58;1.80;;;0.70;;
76693;SDS011;69667;52.136;5.424;2023-08-20T07:44:27;1.88;;;0.70;;
76693;SDS011;69667;52.136;5.424;2023-08-20T07:46:55;2.88;;;0.70;;
76693;SDS011;69667;52.136;5.424;2023-08-20T07:49:24;5.00;;;1.00;;
76693;SDS011;69667;52.136;5.424;2023-08-20T07:51:52;3.80;;;0.85;;
76693;SDS011;69667;52.136;5.424;2023-08-20T07:54:21;3.42;;;0.85;;
76693;SDS011;69667;52.136;5.424;2023-08-20T07:56:49;5.38;;;0.90;;
76693;SDS011;69667;52.136;5.424;2023-08-20T07:59:18;4.25;;;0.80;;
76693;SDS011;69667;52.136;5.424;2023-08-20T08:01:46;1.73;;;0.57;;
76693;SDS011;69667;52.136;5.424;2023-08-20T08:04:15;2.17;;;0.80;;
76693;SDS011;69667;52.136;5.424;2023-08-20T08:06:43;2.05;;;0.63;;
76693;SDS011;69667;52.136;5.424;2023-08-20T08:09:25;3.25;;;0.70;;
76693;SDS011;69667;52.136;5.424;2023-08-20T08:11:58;1.75;;;0.50;;
76693;SDS011;69667;52.136;5.424;2023-08-20T08:14:27;3.85;;;0.93;;
76693;SDS011;69667;52.136;5.424;2023-08-20T08:16:55;2.13;;;0.60;;
76693;SDS011;69667;52.136;5.424;2023-08-20T08:19:24;2.00;;;0.57;;
76693;SDS011;69667;52.136;5.424;2023-08-20T08:21:52;2.47;;;0.57;;
76693;SDS011;69667;52.136;5.424;2023-08-20T08:24:20;2.92;;;1.02;;
76693;SDS011;69667;52.136;5.424;2023-08-20T08:26:48;2.88;;;0.70;;
76693;SDS011;69667;52.136;5.424;2023-08-20T08:29:17;1.80;;;0.57;;
76693;SDS011;69667;52.136;5.424;2023-08-20T08:31:45;2.75;;;0.63;;
76693;SDS011;69667;52.136;5.424;2023-08-20T08:34:13;2.15;;;1.02;;
76693;SDS011;69667;52.136;5.424;2023-08-20T08:36:41;2.42;;;0.90;;
76693;SDS011;69667;52.136;5.424;2023-08-20T08:39:10;1.75;;;0.60;;
76693;SDS011;69667;52.136;5.424;2023-08-20T08:41:38;1.00;;;0.45;;
76693;SDS011;69667;52.136;5.424;2023-08-20T08:44:07;2.53;;;0.73;;
76693;SDS011;69667;52.136;5.424;2023-08-20T08:46:36;1.88;;;0.60;;
76693;SDS011;69667;52.136;5.424;2023-08-20T08:49:07;5.00;;;0.73;;
76693;SDS011;69667;52.136;5.424;2023-08-20T08:51:36;1.73;;;0.60;;
76693;SDS011;69667;52.136;5.424;2023-08-20T08:54:07;1.75;;;0.60;;
76693;SDS011;69667;52.136;5.424;2023-08-20T08:56:36;1.50;;;0.60;;
76693;SDS011;69667;52.136;5.424;2023-08-20T08:59:04;1.75;;;0.60;;
76693;SDS011;69667;52.136;5.424;2023-08-20T09:01:37;3.17;;;0.60;;
76693;SDS011;69667;52.136;5.424;2023-08-20T09:04:09;1.17;;;0.50;;
76693;SDS011;69667;52.136;5.424;2023-08-20T09:09:18;1.35;;;0.50;;
76693;SDS011;69667;52.136;5.424;2023-08-20T09:11:47;1.90;;;0.65;;
76693;SDS011;69667;52.136;5.424;2023-08-20T09:14:22;2.65;;;0.60;;
76693;SDS011;69667;52.136;5.424;2023-08-20T09:16:55;2.70;;;0.75;;
76693;SDS011;69667;52.136;5.424;2023-08-20T09:19:29;1.80;;;0.52;;
76693;SDS011;69667;52.136;5.424;2023-08-20T09:22:02;1.00;;;0.50;;
76693;SDS011;69667;52.136;5.424;2023-08-20T09:24:32;1.25;;;0.60;;
76693;SDS011;69667;52.136;5.424;2023-08-20T09:27:10;1.73;;;0.47;;
76693;SDS011;69667;52.136;5.424;2023-08-20T09:32:19;2.13;;;0.65;;
76693;SDS011;69667;52.136;5.424;2023-08-20T09:34:54;2.17;;;0.60;;
76693;SDS011;69667;52.136;5.424;2023-08-20T09:37:24;1.38;;;0.50;;
76693;SDS011;69667;52.136;5.424;2023-08-20T09:39:52;1.38;;;0.50;;
76693;SDS011;69667;52.136;5.424;2023-08-20T09:42:20;2.90;;;0.80;;
76693;SDS011;69667;52.136;5.424;2023-08-20T09:44:49;1.90;;;0.65;;
76693;SDS011;69667;52.136;5.424;2023-08-20T09:47:19;2.15;;;0.70;;
76693;SDS011;69667;52.136;5.424;2023-08-20T09:49:51;2.15;;;0.60;;
76693;SDS011;69667;52.136;5.424;2023-08-20T09:52:25;1.70;;;0.50;;
76693;SDS011;69667;52.136;5.424;2023-08-20T09:55:00;1.48;;;0.68;;
76693;SDS011;69667;52.136;5.424;2023-08-20T10:00:03;1.38;;;0.63;;
76693;SDS011;69667;52.136;5.424;2023-08-20T10:02:39;1.38;;;0.60;;
76693;SDS011;69667;52.136;5.424;2023-08-20T10:05:10;1.80;;;0.60;;
76693;SDS011;69667;52.136;5.424;2023-08-20T10:07:39;2.03;;;0.57;;
76693;SDS011;69667;52.136;5.424;2023-08-20T10:10:09;1.75;;;0.63;;
76693;SDS011;69667;52.136;5.424;2023-08-20T10:12:41;1.42;;;0.63;;
76693;SDS011;69667;52.136;5.424;2023-08-20T10:15:12;2.13;;;0.68;;
76693;SDS011;69667;52.136;5.424;2023-08-20T10:17:41;0.95;;;0.50;;
76693;SDS011;69667;52.136;5.424;2023-08-20T10:20:12;1.50;;;0.70;;
76693;SDS011;69667;52.136;5.424;2023-08-20T10:25:24;0.93;;;0.43;;
76693;SDS011;69667;52.136;5.424;2023-08-20T10:27:53;1.60;;;0.45;;
76693;SDS011;69667;52.136;5.424;2023-08-20T10:30:25;1.52;;;0.50;;
76693;SDS011;69667;52.136;5.424;2023-08-20T10:32:57;1.58;;;0.50;;
76693;SDS011;69667;52.136;5.424;2023-08-20T10:35:46;1.65;;;0.70;;
76693;SDS011;69667;52.136;5.424;2023-08-20T10:38:16;1.25;;;0.63;;
76693;SDS011;69667;52.136;5.424;2023-08-20T10:40:58;1.15;;;0.55;;
76693;SDS011;69667;52.136;5.424;2023-08-20T10:46:28;1.75;;;0.80;;
76693;SDS011;69667;52.136;5.424;2023-08-20T10:49:03;1.23;;;0.50;;
76693;SDS011;69667;52.136;5.424;2023-08-20T10:51:33;2.13;;;0.60;;
76693;SDS011;69667;52.136;5.424;2023-08-20T10:54:05;1.73;;;0.73;;
76693;SDS011;69667;52.136;5.424;2023-08-20T10:56:47;1.02;;;0.60;;
76693;SDS011;69667;52.136;5.424;2023-08-20T10:59:28;1.30;;;0.60;;
76693;SDS011;69667;52.136;5.424;2023-08-20T11:01:58;1.50;;;0.60;;
76693;SDS011;69667;52.136;5.424;2023-08-20T11:04:28;2.30;;;0.52;;
76693;SDS011;69667;52.136;5.424;2023-08-20T11:06:59;2.78;;;0.50;;
76693;SDS011;69667;52.136;5.424;2023-08-20T11:09:29;1.65;;;0.50;;
76693;SDS011;69667;52.136;5.424;2023-08-20T11:11:58;0.85;;;0.45;;
76693;SDS011;69667;52.136;5.424;2023-08-20T11:14:26;2.38;;;0.50;;
76693;SDS011;69667;52.136;5.424;2023-08-20T11:16:55;1.55;;;0.60;;
76693;SDS011;69667;52.136;5.424;2023-08-20T11:19:24;1.63;;;0.60;;
76693;SDS011;69667;52.136;5.424;2023-08-20T11:21:52;3.55;;;0.68;;
76693;SDS011;69667;52.136;5.424;2023-08-20T11:24:20;1.98;;;0.47;;
76693;SDS011;69667;52.136;5.424;2023-08-20T11:26:49;1.88;;;0.45;;
76693;SDS011;69667;52.136;5.424;2023-08-20T11:29:18;1.10;;;0.45;;
76693;SDS011;69667;52.136;5.424;2023-08-20T11:31:49;1.17;;;0.47;;
76693;SDS011;69667;52.136;5.424;2023-08-20T11:34:20;1.80;;;0.50;;
76693;SDS011;69667;52.136;5.424;2023-08-20T11:36:49;1.88;;;0.68;;
76693;SDS011;69667;52.136;5.424;2023-08-20T11:39:18;1.13;;;0.50;;
76693;SDS011;69667;52.136;5.424;2023-08-20T11:41:47;1.17;;;0.65;;
76693;SDS011;69667;52.136;5.424;2023-08-20T11:44:19;1.63;;;0.73;;
76693;SDS011;69667;52.136;5.424;2023-08-20T11:46:53;1.80;;;0.52;;
76693;SDS011;69667;52.136;5.424;2023-08-20T11:49:27;4.25;;;0.65;;
76693;SDS011;69667;52.136;5.424;2023-08-20T11:51:56;2.85;;;0.60;;
76693;SDS011;69667;52.136;5.424;2023-08-20T11:54:25;2.40;;;0.75;;
76693;SDS011;69667;52.136;5.424;2023-08-20T11:57:01;1.73;;;0.52;;
76693;SDS011;69667;52.136;5.424;2023-08-20T11:59:33;1.80;;;0.40;;
76693;SDS011;69667;52.136;5.424;2023-08-20T12:02:02;1.00;;;0.30;;
76693;SDS011;69667;52.136;5.424;2023-08-20T12:04:31;0.98;;;0.40;;
76693;SDS011;69667;52.136;5.424;2023-08-20T12:07:08;1.98;;;0.55;;
76693;SDS011;69667;52.136;5.424;2023-08-20T12:09:37;1.25;;;0.60;;
76693;SDS011;69667;52.136;5.424;2023-08-20T12:12:06;2.10;;;0.70;;
76693;SDS011;69667;52.136;5.424;2023-08-20T12:14:35;1.17;;;0.50;;
76693;SDS011;69667;52.136;5.424;2023-08-20T12:17:04;0.95;;;0.40;;
76693;SDS011;69667;52.136;5.424;2023-08-20T12:19:32;1.42;;;0.47;;
76693;SDS011;69667;52.136;5.424;2023-08-20T12:22:00;3.78;;;1.15;;
76693;SDS011;69667;52.136;5.424;2023-08-20T12:24:29;2.58;;;0.70;;
76693;SDS011;69667;52.136;5.424;2023-08-20T12:26:57;0.77;;;0.40;;
76693;SDS011;69667;52.136;5.424;2023-08-20T12:29:26;2.28;;;0.52;;
76693;SDS011;69667;52.136;5.424;2023-08-20T12:31:54;2.38;;;0.63;;
76693;SDS011;69667;52.136;5.424;2023-08-20T12:34:22;0.80;;;0.32;;
76693;SDS011;69667;52.136;5.424;2023-08-20T12:36:52;2.50;;;0.60;;
76693;SDS011;69667;52.136;5.424;2023-08-20T12:39:20;1.05;;;0.50;;
76693;SDS011;69667;52.136;5.424;2023-08-20T12:41:48;2.42;;;0.50;;
76693;SDS011;69667;52.136;5.424;2023-08-20T12:44:17;1.33;;;0.38;;
76693;SDS011;69667;52.136;5.424;2023-08-20T12:46:45;1.27;;;0.47;;
76693;SDS011;69667;52.136;5.424;2023-08-20T12:49:13;1.92;;;0.55;;
76693;SDS011;69667;52.136;5.424;2023-08-20T12:51:41;1.83;;;0.35;;
76693;SDS011;69667;52.136;5.424;2023-08-20T12:54:10;2.65;;;0.47;;
76693;SDS011;69667;52.136;5.424;2023-08-20T12:56:38;2.13;;;0.50;;
76693;SDS011;69667;52.136;5.424;2023-08-20T12:59:06;2.15;;;0.35;;
76693;SDS011;69667;52.136;5.424;2023-08-20T13:01:35;1.85;;;0.40;;
76693;SDS011;69667;52.136;5.424;2023-08-20T13:04:03;1.38;;;0.47;;
76693;SDS011;69667;52.136;5.424;2023-08-20T13:06:32;2.80;;;0.88;;
76693;SDS011;69667;52.136;5.424;2023-08-20T13:09:01;2.22;;;0.50;;
76693;SDS011;69667;52.136;5.424;2023-08-20T13:11:30;2.72;;;0.50;;
76693;SDS011;69667;52.136;5.424;2023-08-20T13:13:59;1.23;;;0.88;;
76693;SDS011;69667;52.136;5.424;2023-08-20T13:16:27;0.93;;;0.52;;
76693;SDS011;69667;52.136;5.424;2023-08-20T13:18:56;1.73;;;0.47;;
76693;SDS011;69667;52.136;5.424;2023-08-20T13:21:24;2.78;;;0.35;;
76693;SDS011;69667;52.136;5.424;2023-08-20T13:23:53;1.65;;;0.40;;
76693;SDS011;69667;52.136;5.424;2023-08-20T13:26:21;1.30;;;0.52;;
76693;SDS011;69667;52.136;5.424;2023-08-20T13:28:49;1.65;;;0.40;;
76693;SDS011;69667;52.136;5.424;2023-08-20T13:31:18;3.65;;;0.60;;
76693;SDS011;69667;52.136;5.424;2023-08-20T13:33:46;0.73;;;0.40;;
76693;SDS011;69667;52.136;5.424;2023-08-20T13:36:16;1.80;;;0.50;;
76693;SDS011;69667;52.136;5.424;2023-08-20T13:38:44;2.35;;;0.60;;
76693;SDS011;69667;52.136;5.424;2023-08-20T13:41:13;3.83;;;0.68;;
76693;SDS011;69667;52.136;5.424;2023-08-20T13:43:41;1.40;;;0.50;;
76693;SDS011;69667;52.136;5.424;2023-08-20T13:46:09;1.83;;;0.57;;
76693;SDS011;69667;52.136;5.424;2023-08-20T13:48:38;2.53;;;0.40;;
76693;SDS011;69667;52.136;5.424;2023-08-20T13:51:06;1.83;;;0.52;;
76693;SDS011;69667;52.136;5.424;2023-08-20T13:53:34;2.65;;;0.52;;
76693;SDS011;69667;52.136;5.424;2023-08-20T13:56:03;0.60;;;0.30;;
76693;SDS011;69667;52.136;5.424;2023-08-20T13:58:31;1.63;;;0.57;;
76693;SDS011;69667;52.136;5.424;2023-08-20T14:01:00;3.65;;;0.70;;
76693;SDS011;69667;52.136;5.424;2023-08-20T14:03:28;2.47;;;0.70;;
76693;SDS011;69667;52.136;5.424;2023-08-20T14:05:56;2.15;;;0.43;;
76693;SDS011;69667;52.136;5.424;2023-08-20T14:08:25;3.58;;;0.65;;
76693;SDS011;69667;52.136;5.424;2023-08-20T14:10:53;1.52;;;0.50;;
76693;SDS011;69667;52.136;5.424;2023-08-20T14:13:21;1.55;;;0.40;;
76693;SDS011;69667;52.136;5.424;2023-08-20T14:15:49;0.80;;;0.40;;
76693;SDS011;69667;52.136;5.424;2023-08-20T14:18:18;2.47;;;0.47;;
76693;SDS011;69667;52.136;5.424;2023-08-20T14:20:46;1.42;;;0.50;;
76693;SDS011;69667;52.136;5.424;2023-08-20T14:23:14;2.53;;;0.65;;
76693;SDS011;69667;52.136;5.424;2023-08-20T14:25:43;0.60;;;0.30;;
76693;SDS011;69667;52.136;5.424;2023-08-20T14:28:11;1.08;;;0.43;;
76693;SDS011;69667;52.136;5.424;2023-08-20T14:30:39;2.35;;;0.43;;
76693;SDS011;69667;52.136;5.424;2023-08-20T14:33:08;1.23;;;0.50;;
76693;SDS011;69667;52.136;5.424;2023-08-20T14:35:36;2.75;;;0.65;;
76693;SDS011;69667;52.136;5.424;2023-08-20T14:38:04;1.88;;;0.50;;
76693;SDS011;69667;52.136;5.424;2023-08-20T14:40:32;1.83;;;0.50;;
76693;SDS011;69667;52.136;5.424;2023-08-20T14:43:07;1.75;;;0.60;;
76693;SDS011;69667;52.136;5.424;2023-08-20T14:45:35;1.17;;;0.60;;
76693;SDS011;69667;52.136;5.424;2023-08-20T14:48:03;2.05;;;0.50;;
76693;SDS011;69667;52.136;5.424;2023-08-20T14:50:32;1.60;;;0.40;;
76693;SDS011;69667;52.136;5.424;2023-08-20T14:53:00;3.15;;;0.52;;
76693;SDS011;69667;52.136;5.424;2023-08-20T14:55:28;3.03;;;0.60;;
76693;SDS011;69667;52.136;5.424;2023-08-20T14:57:57;1.85;;;0.45;;
76693;SDS011;69667;52.136;5.424;2023-08-20T15:00:25;1.00;;;0.43;;
76693;SDS011;69667;52.136;5.424;2023-08-20T15:02:54;1.17;;;0.40;;
76693;SDS011;69667;52.136;5.424;2023-08-20T15:05:22;1.20;;;0.50;;
76693;SDS011;69667;52.136;5.424;2023-08-20T15:07:50;2.55;;;0.63;;
76693;SDS011;69667;52.136;5.424;2023-08-20T15:10:19;3.58;;;1.13;;
76693;SDS011;69667;52.136;5.424;2023-08-20T15:12:47;3.67;;;0.80;;
76693;SDS011;69667;52.136;5.424;2023-08-20T15:15:15;4.35;;;0.90;;
76693;SDS011;69667;52.136;5.424;2023-08-20T15:17:43;1.90;;;0.52;;
76693;SDS011;69667;52.136;5.424;2023-08-20T15:20:12;2.67;;;0.70;;
76693;SDS011;69667;52.136;5.424;2023-08-20T15:22:41;0.80;;;0.35;;
76693;SDS011;69667;52.136;5.424;2023-08-20T15:25:10;3.17;;;0.70;;
76693;SDS011;69667;52.136;5.424;2023-08-20T15:27:38;3.58;;;0.60;;
76693;SDS011;69667;52.136;5.424;2023-08-20T15:30:07;1.92;;;0.60;;
76693;SDS011;69667;52.136;5.424;2023-08-20T15:32:36;1.38;;;0.60;;
76693;SDS011;69667;52.136;5.424;2023-08-20T15:35:05;2.30;;;0.75;;
76693;SDS011;69667;52.136;5.424;2023-08-20T15:37:34;2.03;;;0.40;;